PWSweather.com
Personal Weather Stations
Station Observations
KCAEMERA1
Emerald Hills, Redwood City, CA 94062

Emerald HillsRedwood City, CA 94062

Lat: 37.46, Lon: -122.27

Elevation: 800

Station Type:

http://www.anegada.com/weather/wx.htm

High Low Average
Temperature 60.9°F16.1°C 49.6°F9.8°C 54.2°F12.3°C
Dew Point 42.1°F5.6°C 31.9°F-0.1°C 37.3°F2.9°C
Winds 16.0 mph 25.7 kmh Calm Calm 3.0 mph WSW4.8 kmh WSW
Wind Gusts 26.0 mph41.8 kmh -- 5.0 mph8.0 kmh
Humidity 62% 41% 53%
Pressure 30.37 in1028.4 mb 30.23 in1023.7 mb -
Precipitation 0.00 in0.0 mm - -
Hour Temp Dew Point Humidity Winds Wind Gusts Pressure Precip Precip Rate Daily Precip Total
12:03 AM 54.2°F12.3°C 34.4°F1.3°C 47% 13.0 mph NW20.9 kmh NW 14.0 mph22.5 kmh 30.36 in1028.1 mb 0.00 in0.0 mm 0.00 in/hr0.0 mm/hr 0.00 in0.0 mm
12:11 AM 54.0°F12.2°C 34.2°F1.2°C 47% 8.0 mph NW12.9 kmh NW 14.0 mph22.5 kmh 30.36 in1028.1 mb 0.00 in0.0 mm 0.00 in/hr0.0 mm/hr 0.00 in0.0 mm
12:21 AM 53.8°F12.1°C 34.1°F1.2°C 47% 8.0 mph NW12.9 kmh NW 12.0 mph19.3 kmh 30.37 in1028.4 mb 0.00 in0.0 mm 0.00 in/hr0.0 mm/hr 0.00 in0.0 mm
12:33 AM 53.3°F11.8°C 37.1°F2.8°C 54% 7.0 mph WSW11.3 kmh WSW 12.0 mph19.3 kmh 30.37 in1028.4 mb 0.00 in0.0 mm 0.00 in/hr0.0 mm/hr 0.00 in0.0 mm
12:41 AM 52.9°F11.6°C 38.1°F3.4°C 57% 5.0 mph WSW8.0 kmh WSW 7.0 mph11.3 kmh 30.36 in1028.1 mb 0.00 in0.0 mm 0.00 in/hr0.0 mm/hr 0.00 in0.0 mm
12:51 AM 52.7°F11.5°C 38.4°F3.6°C 58% 6.0 mph WSW9.7 kmh WSW 10.0 mph16.1 kmh 30.36 in1028.1 mb 0.00 in0.0 mm 0.00 in/hr0.0 mm/hr 0.00 in0.0 mm
01:03 AM 52.5°F11.4°C 37.7°F3.2°C 57% 5.0 mph W8.0 kmh W 8.0 mph12.9 kmh 30.36 in1028.1 mb 0.00 in0.0 mm 0.00 in/hr0.0 mm/hr 0.00 in0.0 mm
01:11 AM 52.5°F11.4°C 37.3°F2.9°C 56% 5.0 mph SW8.0 kmh SW 9.0 mph14.5 kmh 30.36 in1028.1 mb 0.00 in0.0 mm 0.00 in/hr0.0 mm/hr 0.00 in0.0 mm
01:21 AM 52.4°F11.3°C 38.1°F3.4°C 58% 4.0 mph WSW6.4 kmh WSW 5.0 mph8.0 kmh 30.36 in1028.1 mb 0.00 in0.0 mm 0.00 in/hr0.0 mm/hr 0.00 in0.0 mm
01:33 AM 52.3°F11.3°C 37.1°F2.8°C 56% Calm Calm 5.0 mph8.0 kmh 30.36 in1028.1 mb 0.00 in0.0 mm 0.00 in/hr0.0 mm/hr 0.00 in0.0 mm
01:41 AM 52.2°F11.2°C 37.9°F3.3°C 58% Calm Calm -- 30.36 in1028.1 mb 0.00 in0.0 mm 0.00 in/hr0.0 mm/hr 0.00 in0.0 mm
01:51 AM 52.1°F11.2°C 37.4°F3.0°C 57% Calm Calm -- 30.36 in1028.1 mb 0.00 in0.0 mm 0.00 in/hr0.0 mm/hr 0.00 in0.0 mm
02:03 AM 52.0°F11.1°C 38.6°F3.7°C 60% Calm Calm 3.0 mph4.8 kmh 30.36 in1028.1 mb 0.00 in0.0 mm 0.00 in/hr0.0 mm/hr 0.00 in0.0 mm
02:11 AM 51.7°F10.9°C 38.7°F3.7°C 61% Calm Calm 3.0 mph4.8 kmh 30.36 in1028.1 mb 0.00 in0.0 mm 0.00 in/hr0.0 mm/hr 0.00 in0.0 mm
02:21 AM 51.2°F10.7°C 36.5°F2.5°C 57% 3.0 mph W4.8 kmh W 5.0 mph8.0 kmh 30.37 in1028.4 mb 0.00 in0.0 mm 0.00 in/hr0.0 mm/hr 0.00 in0.0 mm
02:33 AM 50.3°F10.2°C 33.4°F0.8°C 52% 2.0 mph WSW3.2 kmh WSW 6.0 mph9.7 kmh 30.36 in1028.1 mb 0.00 in0.0 mm 0.00 in/hr0.0 mm/hr 0.00 in0.0 mm
02:41 AM 50.3°F10.2°C 33.4°F0.8°C 52% 3.0 mph WSW4.8 kmh WSW 4.0 mph6.4 kmh 30.36 in1028.1 mb 0.00 in0.0 mm 0.00 in/hr0.0 mm/hr 0.00 in0.0 mm
02:51 AM 50.4°F10.2°C 32.5°F0.3°C 50% 2.0 mph WSW3.2 kmh WSW 4.0 mph6.4 kmh 30.35 in1027.8 mb 0.00 in0.0 mm 0.00 in/hr0.0 mm/hr 0.00 in0.0 mm
03:03 AM 50.4°F10.2°C 32.5°F0.3°C 50% Calm Calm 2.0 mph3.2 kmh 30.36 in1028.1 mb 0.00 in0.0 mm 0.00 in/hr0.0 mm/hr 0.00 in0.0 mm
03:11 AM 50.4°F10.2°C 32.5°F0.3°C 50% Calm Calm 2.0 mph3.2 kmh 30.36 in1028.1 mb 0.00 in0.0 mm 0.00 in/hr0.0 mm/hr 0.00 in0.0 mm
03:21 AM 50.4°F10.2°C 32.0°F0.0°C 49% 1.0 mph WSW1.6 kmh WSW 1.0 mph1.6 kmh 30.35 in1027.8 mb 0.00 in0.0 mm 0.00 in/hr0.0 mm/hr 0.00 in0.0 mm
03:33 AM 50.4°F10.2°C 33.0°F0.6°C 51% 3.0 mph WSW4.8 kmh WSW 4.0 mph6.4 kmh 30.35 in1027.8 mb 0.00 in0.0 mm 0.00 in/hr0.0 mm/hr 0.00 in0.0 mm
03:41 AM 50.4°F10.2°C 33.0°F0.6°C 51% Calm Calm 1.0 mph1.6 kmh 30.35 in1027.8 mb 0.00 in0.0 mm 0.00 in/hr0.0 mm/hr 0.00 in0.0 mm
03:51 AM 50.3°F10.2°C 31.9°F-0.1°C 49% 1.0 mph WSW1.6 kmh WSW 5.0 mph8.0 kmh 30.35 in1027.8 mb 0.00 in0.0 mm 0.00 in/hr0.0 mm/hr 0.00 in0.0 mm
04:03 AM 50.2°F10.1°C 35.1°F1.7°C 56% 1.0 mph NW1.6 kmh NW 1.0 mph1.6 kmh 30.35 in1027.8 mb 0.00 in0.0 mm 0.00 in/hr0.0 mm/hr 0.00 in0.0 mm
04:11 AM 50.2°F10.1°C 35.6°F2.0°C 57% 1.0 mph NW1.6 kmh NW 3.0 mph4.8 kmh 30.35 in1027.8 mb 0.00 in0.0 mm 0.00 in/hr0.0 mm/hr 0.00 in0.0 mm
04:21 AM 50.1°F10.1°C 36.8°F2.7°C 60% 2.0 mph NW3.2 kmh NW 2.0 mph3.2 kmh 30.35 in1027.8 mb 0.00 in0.0 mm 0.00 in/hr0.0 mm/hr 0.00 in0.0 mm
04:33 AM 50.0°F10.0°C 37.1°F2.8°C 61% Calm Calm 2.0 mph3.2 kmh 30.35 in1027.8 mb 0.00 in0.0 mm 0.00 in/hr0.0 mm/hr 0.00 in0.0 mm
04:41 AM 49.9°F9.9°C 37.4°F3.0°C 62% 1.0 mph NW1.6 kmh NW 2.0 mph3.2 kmh 30.35 in1027.8 mb 0.00 in0.0 mm 0.00 in/hr0.0 mm/hr 0.00 in0.0 mm
04:51 AM 49.8°F9.9°C 37.3°F2.9°C 62% 2.0 mph NW3.2 kmh NW 5.0 mph8.0 kmh 30.34 in1027.4 mb 0.00 in0.0 mm 0.00 in/hr0.0 mm/hr 0.00 in0.0 mm
05:03 AM 49.8°F9.9°C 37.3°F2.9°C 62% Calm Calm 1.0 mph1.6 kmh 30.34 in1027.4 mb 0.00 in0.0 mm 0.00 in/hr0.0 mm/hr 0.00 in0.0 mm
05:11 AM 49.8°F9.9°C 37.3°F2.9°C 62% Calm Calm 1.0 mph1.6 kmh 30.34 in1027.4 mb 0.00 in0.0 mm 0.00 in/hr0.0 mm/hr 0.00 in0.0 mm
05:21 AM 49.7°F9.8°C 37.2°F2.9°C 62% 3.0 mph NW4.8 kmh NW 3.0 mph4.8 kmh 30.34 in1027.4 mb 0.00 in0.0 mm 0.00 in/hr0.0 mm/hr 0.00 in0.0 mm
05:33 AM 49.7°F9.8°C 35.1°F1.7°C 57% 1.0 mph NW1.6 kmh NW 4.0 mph6.4 kmh 30.34 in1027.4 mb 0.00 in0.0 mm 0.00 in/hr0.0 mm/hr 0.00 in0.0 mm
05:41 AM 49.7°F9.8°C 35.1°F1.7°C 57% 3.0 mph WNW4.8 kmh WNW 4.0 mph6.4 kmh 30.34 in1027.4 mb 0.00 in0.0 mm 0.00 in/hr0.0 mm/hr 0.00 in0.0 mm
05:51 AM 49.8°F9.9°C 34.8°F1.6°C 56% 2.0 mph NW3.2 kmh NW 5.0 mph8.0 kmh 30.34 in1027.4 mb 0.00 in0.0 mm 0.00 in/hr0.0 mm/hr 0.00 in0.0 mm
06:03 AM 49.7°F9.8°C 35.1°F1.7°C 57% Calm Calm -- 30.34 in1027.4 mb 0.00 in0.0 mm 0.00 in/hr0.0 mm/hr 0.00 in0.0 mm
06:11 AM 49.6°F9.8°C 35.0°F1.7°C 57% 1.0 mph NW1.6 kmh NW 2.0 mph3.2 kmh 30.34 in1027.4 mb 0.00 in0.0 mm 0.00 in/hr0.0 mm/hr 0.00 in0.0 mm
06:21 AM 49.6°F9.8°C 34.6°F1.4°C 56% 2.0 mph NW3.2 kmh NW 2.0 mph3.2 kmh 30.33 in1027.1 mb 0.00 in0.0 mm 0.00 in/hr0.0 mm/hr 0.00 in0.0 mm
06:33 AM 49.8°F9.9°C 34.8°F1.6°C 56% 2.0 mph NW3.2 kmh NW 4.0 mph6.4 kmh 30.33 in1027.1 mb 0.00 in0.0 mm 0.00 in/hr0.0 mm/hr 0.00 in0.0 mm
06:41 AM 50.0°F10.0°C 34.9°F1.6°C 56% 3.0 mph NW4.8 kmh NW 6.0 mph9.7 kmh 30.33 in1027.1 mb 0.00 in0.0 mm 0.00 in/hr0.0 mm/hr 0.00 in0.0 mm
06:51 AM 50.0°F10.0°C 34.9°F1.6°C 56% 4.0 mph NW6.4 kmh NW 6.0 mph9.7 kmh 30.34 in1027.4 mb 0.00 in0.0 mm 0.00 in/hr0.0 mm/hr 0.00 in0.0 mm
07:03 AM 49.9°F9.9°C 35.3°F1.8°C 57% 2.0 mph NW3.2 kmh NW 3.0 mph4.8 kmh 30.34 in1027.4 mb 0.00 in0.0 mm 0.00 in/hr0.0 mm/hr 0.00 in0.0 mm
07:11 AM 49.8°F9.9°C 35.2°F1.8°C 57% 4.0 mph NW6.4 kmh NW 4.0 mph6.4 kmh 30.34 in1027.4 mb 0.00 in0.0 mm 0.00 in/hr0.0 mm/hr 0.00 in0.0 mm
07:21 AM 49.9°F9.9°C 35.3°F1.8°C 57% 2.0 mph NW3.2 kmh NW 6.0 mph9.7 kmh 30.34 in1027.4 mb 0.00 in0.0 mm 0.00 in/hr0.0 mm/hr 0.00 in0.0 mm
07:33 AM 50.2°F10.1°C 35.1°F1.7°C 56% 3.0 mph WNW4.8 kmh WNW 7.0 mph11.3 kmh 30.34 in1027.4 mb 0.00 in0.0 mm 0.00 in/hr0.0 mm/hr 0.00 in0.0 mm
07:41 AM 50.5°F10.3°C 35.9°F2.2°C 57% 6.0 mph NW9.7 kmh NW 8.0 mph12.9 kmh 30.34 in1027.4 mb 0.00 in0.0 mm 0.00 in/hr0.0 mm/hr 0.00 in0.0 mm
07:51 AM 50.9°F10.5°C 35.3°F1.8°C 55% 5.0 mph NW8.0 kmh NW 8.0 mph12.9 kmh 30.34 in1027.4 mb 0.00 in0.0 mm 0.00 in/hr0.0 mm/hr 0.00 in0.0 mm
08:03 AM 51.1°F10.6°C 35.5°F1.9°C 55% 3.0 mph NW4.8 kmh NW 5.0 mph8.0 kmh 30.33 in1027.1 mb 0.00 in0.0 mm 0.00 in/hr0.0 mm/hr 0.00 in0.0 mm
08:11 AM 51.2°F10.7°C 35.6°F2.0°C 55% 3.0 mph NW4.8 kmh NW 7.0 mph11.3 kmh 30.33 in1027.1 mb 0.00 in0.0 mm 0.00 in/hr0.0 mm/hr 0.00 in0.0 mm
08:21 AM 51.4°F10.8°C 35.8°F2.1°C 55% 7.0 mph NW11.3 kmh NW 7.0 mph11.3 kmh 30.33 in1027.1 mb 0.00 in0.0 mm 0.00 in/hr0.0 mm/hr 0.00 in0.0 mm
08:33 AM 51.7°F10.9°C 37.0°F2.8°C 57% 5.0 mph NW8.0 kmh NW 12.0 mph19.3 kmh 30.33 in1027.1 mb 0.00 in0.0 mm 0.00 in/hr0.0 mm/hr 0.00 in0.0 mm
08:41 AM 51.8°F11.0°C 36.2°F2.3°C 55% 3.0 mph NNW4.8 kmh NNW 5.0 mph8.0 kmh 30.33 in1027.1 mb 0.00 in0.0 mm 0.00 in/hr0.0 mm/hr 0.00 in0.0 mm
08:51 AM 51.9°F11.1°C 36.7°F2.6°C 56% 4.0 mph NNW6.4 kmh NNW 7.0 mph11.3 kmh 30.33 in1027.1 mb 0.00 in0.0 mm 0.00 in/hr0.0 mm/hr 0.00 in0.0 mm
09:03 AM 52.0°F11.1°C 37.7°F3.2°C 58% 3.0 mph NNW4.8 kmh NNW 5.0 mph8.0 kmh 30.33 in1027.1 mb 0.00 in0.0 mm 0.00 in/hr0.0 mm/hr 0.00 in0.0 mm
09:11 AM 52.1°F11.2°C 37.4°F3.0°C 57% 3.0 mph NNW4.8 kmh NNW 5.0 mph8.0 kmh 30.34 in1027.4 mb 0.00 in0.0 mm 0.00 in/hr0.0 mm/hr 0.00 in0.0 mm
09:21 AM 52.2°F11.2°C 37.4°F3.0°C 57% Calm Calm 3.0 mph4.8 kmh 30.34 in1027.4 mb 0.00 in0.0 mm 0.00 in/hr0.0 mm/hr 0.00 in0.0 mm
09:33 AM 54.5°F12.5°C 39.6°F4.2°C 57% 2.0 mph NNW3.2 kmh NNW 5.0 mph8.0 kmh 30.34 in1027.4 mb 0.00 in0.0 mm 0.00 in/hr0.0 mm/hr 0.00 in0.0 mm
09:41 AM 56.2°F13.4°C 41.6°F5.3°C 58% 4.0 mph NNW6.4 kmh NNW 5.0 mph8.0 kmh 30.35 in1027.8 mb 0.00 in0.0 mm 0.00 in/hr0.0 mm/hr 0.00 in0.0 mm
09:51 AM 57.7°F14.3°C 38.7°F3.7°C 49% Calm Calm 5.0 mph8.0 kmh 30.34 in1027.4 mb 0.00 in0.0 mm 0.00 in/hr0.0 mm/hr 0.00 in0.0 mm
10:03 AM 58.2°F14.6°C 36.4°F2.4°C 44% Calm Calm 2.0 mph3.2 kmh 30.35 in1027.8 mb 0.00 in0.0 mm 0.00 in/hr0.0 mm/hr 0.00 in0.0 mm
10:11 AM 56.0°F13.3°C 36.6°F2.6°C 48% Calm Calm 2.0 mph3.2 kmh 30.35 in1027.8 mb 0.00 in0.0 mm 0.00 in/hr0.0 mm/hr 0.00 in0.0 mm
10:21 AM 55.2°F12.9°C 37.4°F3.0°C 51% Calm Calm 2.0 mph3.2 kmh 30.35 in1027.8 mb 0.00 in0.0 mm 0.00 in/hr0.0 mm/hr 0.00 in0.0 mm
10:33 AM 54.3°F12.4°C 36.6°F2.6°C 51% Calm Calm 2.0 mph3.2 kmh 30.36 in1028.1 mb 0.00 in0.0 mm 0.00 in/hr0.0 mm/hr 0.00 in0.0 mm
10:41 AM 54.6°F12.6°C 35.8°F2.1°C 49% 1.0 mph NNW1.6 kmh NNW 2.0 mph3.2 kmh 30.35 in1027.8 mb 0.00 in0.0 mm 0.00 in/hr0.0 mm/hr 0.00 in0.0 mm
10:51 AM 55.0°F12.8°C 38.2°F3.4°C 53% Calm Calm 2.0 mph3.2 kmh 30.36 in1028.1 mb 0.00 in0.0 mm 0.00 in/hr0.0 mm/hr 0.00 in0.0 mm
11:03 AM 55.9°F13.3°C 38.1°F3.4°C 51% Calm Calm 1.0 mph1.6 kmh 30.35 in1027.8 mb 0.00 in0.0 mm 0.00 in/hr0.0 mm/hr 0.00 in0.0 mm
11:11 AM 56.3°F13.5°C 38.9°F3.8°C 52% Calm Calm 3.0 mph4.8 kmh 30.35 in1027.8 mb 0.00 in0.0 mm 0.00 in/hr0.0 mm/hr 0.00 in0.0 mm
11:21 AM 56.5°F13.6°C 38.1°F3.4°C 50% 2.0 mph NNW3.2 kmh NNW 3.0 mph4.8 kmh 30.36 in1028.1 mb 0.00 in0.0 mm 0.00 in/hr0.0 mm/hr 0.00 in0.0 mm
11:33 AM 57.0°F13.9°C 38.6°F3.7°C 50% 1.0 mph NNW1.6 kmh NNW 4.0 mph6.4 kmh 30.35 in1027.8 mb 0.00 in0.0 mm 0.00 in/hr0.0 mm/hr 0.00 in0.0 mm
11:41 AM 57.3°F14.1°C 38.3°F3.5°C 49% Calm Calm -- 30.35 in1027.8 mb 0.00 in0.0 mm 0.00 in/hr0.0 mm/hr 0.00 in0.0 mm
11:51 AM 57.8°F14.3°C 38.3°F3.5°C 48% 1.0 mph NNW1.6 kmh NNW 2.0 mph3.2 kmh 30.34 in1027.4 mb 0.00 in0.0 mm 0.00 in/hr0.0 mm/hr 0.00 in0.0 mm
12:03 PM 58.4°F14.7°C 37.7°F3.2°C 46% 1.0 mph NNW1.6 kmh NNW 3.0 mph4.8 kmh 30.34 in1027.4 mb 0.00 in0.0 mm 0.00 in/hr0.0 mm/hr 0.00 in0.0 mm
12:11 PM 58.8°F14.9°C 38.1°F3.4°C 46% Calm Calm 3.0 mph4.8 kmh 30.33 in1027.1 mb 0.00 in0.0 mm 0.00 in/hr0.0 mm/hr 0.00 in0.0 mm
12:21 PM 59.3°F15.2°C 40.2°F4.6°C 49% 2.0 mph E3.2 kmh E 3.0 mph4.8 kmh 30.33 in1027.1 mb 0.00 in0.0 mm 0.00 in/hr0.0 mm/hr 0.00 in0.0 mm
12:33 PM 59.2°F15.1°C 40.1°F4.5°C 49% 4.0 mph ESE6.4 kmh ESE 6.0 mph9.7 kmh 30.32 in1026.8 mb 0.00 in0.0 mm 0.00 in/hr0.0 mm/hr 0.00 in0.0 mm
12:41 PM 59.0°F15.0°C 39.9°F4.4°C 49% 5.0 mph E8.0 kmh E 5.0 mph8.0 kmh 30.32 in1026.8 mb 0.00 in0.0 mm 0.00 in/hr0.0 mm/hr 0.00 in0.0 mm
12:51 PM 58.7°F14.8°C 40.1°F4.5°C 50% 1.0 mph E1.6 kmh E 5.0 mph8.0 kmh 30.31 in1026.4 mb 0.00 in0.0 mm 0.00 in/hr0.0 mm/hr 0.00 in0.0 mm
01:03 PM 58.6°F14.8°C 40.0°F4.4°C 50% 3.0 mph E4.8 kmh E 5.0 mph8.0 kmh 30.30 in1026.1 mb 0.00 in0.0 mm 0.00 in/hr0.0 mm/hr 0.00 in0.0 mm
01:11 PM 58.6°F14.8°C 40.0°F4.4°C 50% Calm Calm 5.0 mph8.0 kmh 30.30 in1026.1 mb 0.00 in0.0 mm 0.00 in/hr0.0 mm/hr 0.00 in0.0 mm
01:21 PM 58.8°F14.9°C 40.2°F4.6°C 50% 1.0 mph E1.6 kmh E 2.0 mph3.2 kmh 30.30 in1026.1 mb 0.00 in0.0 mm 0.00 in/hr0.0 mm/hr 0.00 in0.0 mm
01:33 PM 59.2°F15.1°C 40.6°F4.8°C 50% 1.0 mph E1.6 kmh E 4.0 mph6.4 kmh 30.29 in1025.7 mb 0.00 in0.0 mm 0.00 in/hr0.0 mm/hr 0.00 in0.0 mm
01:41 PM 59.5°F15.3°C 40.9°F4.9°C 50% 2.0 mph E3.2 kmh E 4.0 mph6.4 kmh 30.28 in1025.4 mb 0.00 in0.0 mm 0.00 in/hr0.0 mm/hr 0.00 in0.0 mm
01:51 PM 59.7°F15.4°C 40.0°F4.4°C 48% 2.0 mph ENE3.2 kmh ENE 5.0 mph8.0 kmh 30.28 in1025.4 mb 0.00 in0.0 mm 0.00 in/hr0.0 mm/hr 0.00 in0.0 mm
02:03 PM 59.8°F15.4°C 39.6°F4.2°C 47% 3.0 mph NE4.8 kmh NE 4.0 mph6.4 kmh 30.27 in1025.1 mb 0.00 in0.0 mm 0.00 in/hr0.0 mm/hr 0.00 in0.0 mm
02:11 PM 59.7°F15.4°C 39.5°F4.2°C 47% 4.0 mph NNE6.4 kmh NNE 6.0 mph9.7 kmh 30.27 in1025.1 mb 0.00 in0.0 mm 0.00 in/hr0.0 mm/hr 0.00 in0.0 mm
02:21 PM 59.8°F15.4°C 39.6°F4.2°C 47% 3.0 mph NE4.8 kmh NE 3.0 mph4.8 kmh 30.27 in1025.1 mb 0.00 in0.0 mm 0.00 in/hr0.0 mm/hr 0.00 in0.0 mm
02:33 PM 60.2°F15.7°C 39.4°F4.1°C 46% 1.0 mph NE1.6 kmh NE 5.0 mph8.0 kmh 30.26 in1024.7 mb 0.00 in0.0 mm 0.00 in/hr0.0 mm/hr 0.00 in0.0 mm
02:41 PM 60.3°F15.7°C 40.0°F4.4°C 47% 3.0 mph NE4.8 kmh NE 3.0 mph4.8 kmh 30.26 in1024.7 mb 0.00 in0.0 mm 0.00 in/hr0.0 mm/hr 0.00 in0.0 mm
02:51 PM 60.4°F15.8°C 41.7°F5.4°C 50% 3.0 mph NE4.8 kmh NE 5.0 mph8.0 kmh 30.25 in1024.4 mb 0.00 in0.0 mm 0.00 in/hr0.0 mm/hr 0.00 in0.0 mm
03:03 PM 60.4°F15.8°C 39.6°F4.2°C 46% 3.0 mph NE4.8 kmh NE 3.0 mph4.8 kmh 30.25 in1024.4 mb 0.00 in0.0 mm 0.00 in/hr0.0 mm/hr 0.00 in0.0 mm
03:11 PM 60.3°F15.7°C 39.5°F4.2°C 46% Calm Calm 4.0 mph6.4 kmh 30.25 in1024.4 mb 0.00 in0.0 mm 0.00 in/hr0.0 mm/hr 0.00 in0.0 mm
03:21 PM 60.4°F15.8°C 40.1°F4.5°C 47% 3.0 mph NW4.8 kmh NW 6.0 mph9.7 kmh 30.25 in1024.4 mb 0.00 in0.0 mm 0.00 in/hr0.0 mm/hr 0.00 in0.0 mm
03:33 PM 60.7°F15.9°C 40.4°F4.7°C 47% 5.0 mph N8.0 kmh N 10.0 mph16.1 kmh 30.24 in1024.0 mb 0.00 in0.0 mm 0.00 in/hr0.0 mm/hr 0.00 in0.0 mm
03:41 PM 60.9°F16.1°C 41.6°F5.3°C 49% 5.0 mph NW8.0 kmh NW 8.0 mph12.9 kmh 30.24 in1024.0 mb 0.00 in0.0 mm 0.00 in/hr0.0 mm/hr 0.00 in0.0 mm
03:51 PM 60.8°F16.0°C 42.1°F5.6°C 50% 10.0 mph NW16.1 kmh NW 15.0 mph24.1 kmh 30.24 in1024.0 mb 0.00 in0.0 mm 0.00 in/hr0.0 mm/hr 0.00 in0.0 mm
04:03 PM 60.4°F15.8°C 40.6°F4.8°C 48% 10.0 mph NW16.1 kmh NW 16.0 mph25.7 kmh 30.24 in1024.0 mb 0.00 in0.0 mm 0.00 in/hr0.0 mm/hr 0.00 in0.0 mm
04:11 PM 60.2°F15.7°C 39.9°F4.4°C 47% 16.0 mph WNW25.7 kmh WNW 26.0 mph41.8 kmh 30.24 in1024.0 mb 0.00 in0.0 mm 0.00 in/hr0.0 mm/hr 0.00 in0.0 mm
04:21 PM 59.6°F15.3°C 35.9°F2.2°C 41% 15.0 mph NW24.1 kmh NW 16.0 mph25.7 kmh 30.23 in1023.7 mb 0.00 in0.0 mm 0.00 in/hr0.0 mm/hr 0.00 in0.0 mm
04:33 PM 59.1°F15.1°C 36.7°F2.6°C 43% 15.0 mph NW24.1 kmh NW 26.0 mph41.8 kmh 30.23 in1023.7 mb 0.00 in0.0 mm 0.00 in/hr0.0 mm/hr 0.00 in0.0 mm
04:41 PM 58.7°F14.8°C 35.1°F1.7°C 41% 14.0 mph NW22.5 kmh NW 22.0 mph35.4 kmh 30.23 in1023.7 mb 0.00 in0.0 mm 0.00 in/hr0.0 mm/hr 0.00 in0.0 mm
04:51 PM 58.3°F14.6°C 35.3°F1.8°C 42% 16.0 mph NW25.7 kmh NW 23.0 mph37.0 kmh 30.23 in1023.7 mb 0.00 in0.0 mm 0.00 in/hr0.0 mm/hr 0.00 in0.0 mm
05:03 PM 57.9°F14.4°C 36.1°F2.3°C 44% 12.0 mph NW19.3 kmh NW 17.0 mph27.4 kmh 30.23 in1023.7 mb 0.00 in0.0 mm 0.00 in/hr0.0 mm/hr 0.00 in0.0 mm
05:11 PM 57.7°F14.3°C 36.0°F2.2°C 44% 11.0 mph NW17.7 kmh NW 17.0 mph27.4 kmh 30.23 in1023.7 mb 0.00 in0.0 mm 0.00 in/hr0.0 mm/hr 0.00 in0.0 mm
05:21 PM 57.4°F14.1°C 35.7°F2.1°C 44% 4.0 mph NW6.4 kmh NW 13.0 mph20.9 kmh 30.23 in1023.7 mb 0.00 in0.0 mm 0.00 in/hr0.0 mm/hr 0.00 in0.0 mm
05:33 PM 56.8°F13.8°C 34.6°F1.4°C 43% 8.0 mph NW12.9 kmh NW 15.0 mph24.1 kmh 30.23 in1023.7 mb 0.00 in0.0 mm 0.00 in/hr0.0 mm/hr 0.00 in0.0 mm
05:41 PM 56.4°F13.6°C 34.2°F1.2°C 43% 6.0 mph NW9.7 kmh NW 11.0 mph17.7 kmh 30.23 in1023.7 mb 0.00 in0.0 mm 0.00 in/hr0.0 mm/hr 0.00 in0.0 mm
05:51 PM 56.0°F13.3°C 33.8°F1.0°C 43% 9.0 mph NW14.5 kmh NW 14.0 mph22.5 kmh 30.23 in1023.7 mb 0.00 in0.0 mm 0.00 in/hr0.0 mm/hr 0.00 in0.0 mm
06:03 PM 55.3°F12.9°C 33.8°F1.0°C 44% 10.0 mph NW16.1 kmh NW 11.0 mph17.7 kmh 30.23 in1023.7 mb 0.00 in0.0 mm 0.00 in/hr0.0 mm/hr 0.00 in0.0 mm
06:11 PM 55.0°F12.8°C 33.5°F0.8°C 44% 11.0 mph WNW17.7 kmh WNW 15.0 mph24.1 kmh 30.23 in1023.7 mb 0.00 in0.0 mm 0.00 in/hr0.0 mm/hr 0.00 in0.0 mm
06:21 PM 54.6°F12.6°C 33.1°F0.6°C 44% 7.0 mph WNW11.3 kmh WNW 12.0 mph19.3 kmh 30.22 in1023.4 mb 0.00 in0.0 mm 0.00 in/hr0.0 mm/hr 0.00 in0.0 mm
06:33 PM 53.9°F12.2°C 31.9°F-0.1°C 43% 4.0 mph WNW6.4 kmh WNW 12.0 mph19.3 kmh 30.23 in1023.7 mb 0.00 in0.0 mm 0.00 in/hr0.0 mm/hr 0.00 in0.0 mm
06:41 PM 53.5°F11.9°C 32.1°F0.1°C 44% 3.0 mph WNW4.8 kmh WNW 7.0 mph11.3 kmh 30.22 in1023.4 mb 0.00 in0.0 mm 0.00 in/hr0.0 mm/hr 0.00 in0.0 mm
06:51 PM 53.0°F11.7°C 31.1°F-0.5°C 43% 6.0 mph W9.7 kmh W 7.0 mph11.3 kmh 30.23 in1023.7 mb 0.00 in0.0 mm 0.00 in/hr0.0 mm/hr 0.00 in0.0 mm
07:03 PM 52.5°F11.4°C 30.7°F-0.7°C 43% 4.0 mph W6.4 kmh W 6.0 mph9.7 kmh 30.23 in1023.7 mb 0.00 in0.0 mm 0.00 in/hr0.0 mm/hr 0.00 in0.0 mm
07:11 PM 52.2°F11.2°C 29.8°F-1.2°C 42% 2.0 mph W3.2 kmh W 6.0 mph9.7 kmh 30.22 in1023.4 mb 0.00 in0.0 mm 0.00 in/hr0.0 mm/hr 0.00 in0.0 mm
07:21 PM 51.8°F11.0°C 30.0°F-1.1°C 43% Calm Calm 2.0 mph3.2 kmh 30.22 in1023.4 mb 0.00 in0.0 mm 0.00 in/hr0.0 mm/hr 0.00 in0.0 mm
07:33 PM 51.4°F10.8°C 28.5°F-1.9°C 41% 2.0 mph W3.2 kmh W 3.0 mph4.8 kmh 30.22 in1023.4 mb 0.00 in0.0 mm 0.00 in/hr0.0 mm/hr 0.00 in0.0 mm
07:41 PM 51.2°F10.7°C 27.7°F-2.4°C 40% Calm Calm -- 30.22 in1023.4 mb 0.00 in0.0 mm 0.00 in/hr0.0 mm/hr 0.00 in0.0 mm
07:51 PM 51.1°F10.6°C 27.0°F-2.8°C 39% Calm Calm -- 30.22 in1023.4 mb 0.00 in0.0 mm 0.00 in/hr0.0 mm/hr 0.00 in0.0 mm
08:03 PM 50.8°F10.4°C 26.8°F-2.9°C 39% 1.0 mph W1.6 kmh W 4.0 mph6.4 kmh 30.22 in1023.4 mb 0.00 in0.0 mm 0.00 in/hr0.0 mm/hr 0.00 in0.0 mm
08:11 PM 50.7°F10.4°C 26.0°F-3.3°C 38% Calm Calm 6.0 mph9.7 kmh 30.22 in1023.4 mb 0.00 in0.0 mm 0.00 in/hr0.0 mm/hr 0.00 in0.0 mm
08:21 PM 50.7°F10.4°C 26.7°F-2.9°C 39% 5.0 mph WSW8.0 kmh WSW 8.0 mph12.9 kmh 30.21 in1023.0 mb 0.00 in0.0 mm 0.00 in/hr0.0 mm/hr 0.00 in0.0 mm
08:33 PM 50.4°F10.2°C 27.0°F-2.8°C 40% 3.0 mph WSW4.8 kmh WSW 8.0 mph12.9 kmh 30.22 in1023.4 mb 0.00 in0.0 mm 0.00 in/hr0.0 mm/hr 0.00 in0.0 mm
08:41 PM 50.1°F10.1°C 30.1°F-1.1°C 46% Calm Calm 2.0 mph3.2 kmh 30.22 in1023.4 mb 0.00 in0.0 mm 0.00 in/hr0.0 mm/hr 0.00 in0.0 mm
08:51 PM 49.7°F9.8°C 27.6°F-2.4°C 42% 4.0 mph WSW6.4 kmh WSW 5.0 mph8.0 kmh 30.22 in1023.4 mb 0.00 in0.0 mm 0.00 in/hr0.0 mm/hr 0.00 in0.0 mm
09:02 PM 49.4°F9.7°C 27.9°F-2.3°C 43% 3.0 mph WSW4.8 kmh WSW 6.0 mph9.7 kmh 30.22 in1023.4 mb 0.00 in0.0 mm 0.00 in/hr0.0 mm/hr 0.00 in0.0 mm
09:11 PM 49.2°F9.6°C 28.8°F-1.8°C 45% 7.0 mph WSW11.3 kmh WSW 7.0 mph11.3 kmh 30.22 in1023.4 mb 0.00 in0.0 mm 0.00 in/hr0.0 mm/hr 0.00 in0.0 mm
09:21 PM 49.1°F9.5°C 29.2°F-1.6°C 46% 5.0 mph WSW8.0 kmh WSW 8.0 mph12.9 kmh 30.22 in1023.4 mb 0.00 in0.0 mm 0.00 in/hr0.0 mm/hr 0.00 in0.0 mm
09:33 PM 48.7°F9.3°C 29.9°F-1.2°C 48% 4.0 mph WSW6.4 kmh WSW 8.0 mph12.9 kmh 30.22 in1023.4 mb 0.00 in0.0 mm 0.00 in/hr0.0 mm/hr 0.00 in0.0 mm
09:41 PM 48.6°F9.2°C 30.3°F-0.9°C 49% 4.0 mph WSW6.4 kmh WSW 7.0 mph11.3 kmh 30.22 in1023.4 mb 0.00 in0.0 mm 0.00 in/hr0.0 mm/hr 0.00 in0.0 mm
09:51 PM 48.4°F9.1°C 30.6°F-0.8°C 50% 5.0 mph W8.0 kmh W 8.0 mph12.9 kmh 30.22 in1023.4 mb 0.00 in0.0 mm 0.00 in/hr0.0 mm/hr 0.00 in0.0 mm
10:03 PM 48.3°F9.1°C 31.0°F-0.6°C 51% 4.0 mph WSW6.4 kmh WSW 6.0 mph9.7 kmh 30.22 in1023.4 mb 0.00 in0.0 mm 0.00 in/hr0.0 mm/hr 0.00 in0.0 mm
10:11 PM 48.2°F9.0°C 30.9°F-0.6°C 51% 6.0 mph WSW9.7 kmh WSW 8.0 mph12.9 kmh 30.22 in1023.4 mb 0.00 in0.0 mm 0.00 in/hr0.0 mm/hr 0.00 in0.0 mm
10:21 PM 48.1°F8.9°C 31.3°F-0.4°C 52% 7.0 mph WSW11.3 kmh WSW 8.0 mph12.9 kmh 30.22 in1023.4 mb 0.00 in0.0 mm 0.00 in/hr0.0 mm/hr 0.00 in0.0 mm
10:33 PM 48.0°F8.9°C 30.8°F-0.7°C 51% 7.0 mph WSW11.3 kmh WSW 10.0 mph16.1 kmh 30.22 in1023.4 mb 0.00 in0.0 mm 0.00 in/hr0.0 mm/hr 0.00 in0.0 mm
10:41 PM 47.9°F8.8°C 30.7°F-0.7°C 51% 8.0 mph SW12.9 kmh SW 10.0 mph16.1 kmh 30.22 in1023.4 mb 0.00 in0.0 mm 0.00 in/hr0.0 mm/hr 0.00 in0.0 mm
10:51 PM 48.0°F8.9°C 31.2°F-0.4°C 52% 9.0 mph SW14.5 kmh SW 11.0 mph17.7 kmh 30.21 in1023.0 mb 0.00 in0.0 mm 0.00 in/hr0.0 mm/hr 0.00 in0.0 mm
11:03 PM 47.6°F8.7°C 30.9°F-0.6°C 52% 2.0 mph WSW3.2 kmh WSW 6.0 mph9.7 kmh 30.22 in1023.4 mb 0.00 in0.0 mm 0.00 in/hr0.0 mm/hr 0.00 in0.0 mm
11:11 PM 47.1°F8.4°C 30.4°F-0.9°C 52% 1.0 mph WSW1.6 kmh WSW 6.0 mph9.7 kmh 30.22 in1023.4 mb 0.00 in0.0 mm 0.00 in/hr0.0 mm/hr 0.00 in0.0 mm
11:21 PM 47.0°F8.3°C 30.3°F-0.9°C 52% 4.0 mph W6.4 kmh W 5.0 mph8.0 kmh 30.22 in1023.4 mb 0.00 in0.0 mm 0.00 in/hr0.0 mm/hr 0.00 in0.0 mm
11:33 PM 47.0°F8.3°C 30.3°F-0.9°C 52% 4.0 mph WSW6.4 kmh WSW 7.0 mph11.3 kmh 30.22 in1023.4 mb 0.00 in0.0 mm 0.00 in/hr0.0 mm/hr 0.00 in0.0 mm
11:41 PM 46.9°F8.3°C 30.7°F-0.7°C 53% 2.0 mph WSW3.2 kmh WSW 4.0 mph6.4 kmh 30.22 in1023.4 mb 0.00 in0.0 mm 0.00 in/hr0.0 mm/hr 0.00 in0.0 mm
11:51 PM 46.7°F8.2°C 30.0°F-1.1°C 52% 1.0 mph WSW1.6 kmh WSW 5.0 mph8.0 kmh 30.22 in1023.4 mb 0.00 in0.0 mm 0.00 in/hr0.0 mm/hr 0.00 in0.0 mm